Time;durP1;ratioP1;P1;durP2;ratioP2;P2;SDS_P1;SDS_P2;PMS_P1;PMS_P2;Temp;Humidity;BMP_temperature;BMP_pressure;BME280_temperature;BME280_humidity;BME280_pressure;Samples;Min_cycle;Max_cycle;Signal;HPM_P1;HPM_P2
2022/12/19 00:02:09;;;;;;;21.60;11.63;;;5.30;99.90;;;;;;5074265;28;20226;-72
2022/12/19 00:04:34;;;;;;;25.77;12.77;;;5.30;99.90;;;;;;5074363;28;20195;-71
2022/12/19 00:07:00;;;;;;;20.10;11.60;;;5.30;99.90;;;;;;5074287;28;20226;-71
2022/12/19 00:09:26;;;;;;;17.33;11.33;;;5.40;99.90;;;;;;5074384;28;20168;-74
2022/12/19 00:11:52;;;;;;;22.73;13.20;;;5.40;99.90;;;;;;5074069;28;20255;-71
2022/12/19 00:14:18;;;;;;;20.63;12.50;;;5.50;99.90;;;;;;5074307;28;20295;-73
2022/12/19 00:16:44;;;;;;;21.20;12.13;;;5.40;99.90;;;;;;5073994;28;20204;-72
2022/12/19 00:19:11;;;;;;;20.20;13.53;;;5.40;99.90;;;;;;5073935;28;20177;-73
2022/12/19 00:21:37;;;;;;;20.83;12.80;;;5.40;99.90;;;;;;5074012;28;20216;-72
2022/12/19 00:24:06;;;;;;;25.07;13.23;;;5.40;99.90;;;;;;5073934;28;20612;-71
2022/12/19 00:26:35;;;;;;;23.03;12.70;;;5.50;99.90;;;;;;5073591;28;20177;-72
2022/12/19 00:29:06;;;;;;;21.57;13.33;;;5.40;99.90;;;;;;5073840;28;20165;-72
2022/12/19 00:31:34;;;;;;;21.10;12.53;;;5.50;99.90;;;;;;5073977;28;20179;-72
2022/12/19 00:34:00;;;;;;;21.43;12.97;;;5.50;99.90;;;;;;5073857;28;20401;-72
2022/12/19 00:36:28;;;;;;;21.13;12.73;;;5.50;99.90;;;;;;5073657;28;20258;-72
2022/12/19 00:38:55;;;;;;;24.40;12.77;;;5.50;99.90;;;;;;5073690;28;20231;-72
2022/12/19 00:41:26;;;;;;;22.10;13.23;;;5.60;99.90;;;;;;5073048;28;20200;-72
2022/12/19 00:43:53;;;;;;;21.37;12.33;;;5.60;99.90;;;;;;5073540;28;20168;-73
2022/12/19 00:46:20;;;;;;;21.90;12.43;;;5.60;99.90;;;;;;5073661;28;20157;-72
2022/12/19 00:48:45;;;;;;;21.37;13.17;;;5.60;99.90;;;;;;5074017;28;20169;-71
2022/12/19 00:51:19;;;;;;;18.90;12.23;;;5.60;99.90;;;;;;5073642;28;20528;-72
2022/12/19 00:53:47;;;;;;;22.40;13.00;;;5.70;99.90;;;;;;5073724;28;20165;-72
2022/12/19 00:56:18;;;;;;;25.03;12.43;;;5.70;99.90;;;;;;5072942;28;20204;-72
2022/12/19 00:58:45;;;;;;;22.93;13.30;;;5.70;99.90;;;;;;5073768;28;20628;-71
2022/12/19 01:01:16;;;;;;;20.83;12.30;;;5.70;99.90;;;;;;5073469;28;20716;-72
2022/12/19 01:03:41;;;;;;;19.20;12.40;;;5.80;99.90;;;;;;5073367;28;20247;-70
2022/12/19 01:06:08;;;;;;;20.67;12.53;;;5.80;99.90;;;;;;5073527;28;20200;-73
2022/12/19 01:08:34;;;;;;;22.40;12.17;;;5.90;99.90;;;;;;5073505;28;20169;-71
2022/12/19 01:10:59;;;;;;;22.13;13.17;;;5.90;99.90;;;;;;5073092;28;20175;-71
2022/12/19 01:13:27;;;;;;;19.50;13.03;;;5.90;99.90;;;;;;5073054;28;20546;-71
2022/12/19 01:15:53;;;;;;;22.23;13.30;;;6.00;99.90;;;;;;5073087;28;20303;-70
2022/12/19 01:18:20;;;;;;;20.20;12.63;;;6.00;99.90;;;;;;5073291;28;20228;-70
2022/12/19 01:20:48;;;;;;;19.43;12.10;;;6.10;99.90;;;;;;5073504;28;20207;-70
2022/12/19 01:23:16;;;;;;;21.97;12.57;;;6.20;99.90;;;;;;5073016;28;20246;-71
2022/12/19 01:25:47;;;;;;;17.17;11.13;;;6.20;99.90;;;;;;5072914;28;20173;-71
2022/12/19 01:28:14;;;;;;;19.97;11.90;;;6.30;99.90;;;;;;5073217;28;20628;-72
2022/12/19 01:30:40;;;;;;;19.70;11.93;;;6.30;99.90;;;;;;5073229;28;20275;-71
2022/12/19 01:33:07;;;;;;;16.53;10.53;;;6.40;99.90;;;;;;5073225;28;20230;-70
2022/12/19 01:35:33;;;;;;;14.80;10.57;;;6.40;99.90;;;;;;5073221;28;20219;-70
2022/12/19 01:37:59;;;;;;;15.63;10.27;;;6.50;99.90;;;;;;5072881;28;20177;-70
2022/12/19 01:40:24;;;;;;;16.47;10.30;;;6.50;99.90;;;;;;5072675;28;20538;-70
2022/12/19 01:42:50;;;;;;;15.30;10.10;;;6.60;99.90;;;;;;5073128;28;20177;-70
2022/12/19 01:45:15;;;;;;;12.20;9.37;;;6.60;99.90;;;;;;5072983;28;20283;-72
2022/12/19 01:47:50;;;;;;;15.27;9.63;;;6.70;99.90;;;;;;5073229;28;20168;-70
2022/12/19 01:50:22;;;;;;;13.33;9.50;;;6.70;99.90;;;;;;5072861;28;20695;-70
2022/12/19 01:52:48;;;;;;;13.90;9.83;;;6.70;99.90;;;;;;5073446;28;20187;-71
2022/12/19 01:55:14;;;;;;;14.40;10.00;;;6.80;99.90;;;;;;5076751;28;20698;-70
2022/12/19 01:57:40;;;;;;;14.30;9.43;;;6.80;99.90;;;;;;5076983;28;20173;-72
2022/12/19 02:00:08;;;;;;;12.27;8.83;;;6.90;99.90;;;;;;5076779;28;20529;-70
2022/12/19 02:03:02;;;;;;;14.57;10.10;;;7.00;99.90;;;;;;5076575;28;20173;-71
2022/12/19 02:05:28;;;;;;;12.03;9.20;;;7.00;99.90;;;;;;5048106;28;20651;-72
2022/12/19 02:07:54;;;;;;;13.00;8.93;;;7.00;99.90;;;;;;5076269;28;20176;-72
2022/12/19 02:10:20;;;;;;;11.90;9.33;;;7.10;99.90;;;;;;5076664;28;20676;-72
2022/12/19 02:12:46;;;;;;;12.60;9.70;;;7.10;99.90;;;;;;5076332;28;20635;-71
2022/12/19 02:15:13;;;;;;;13.50;9.70;;;7.10;99.90;;;;;;5076410;28;20173;-71
2022/12/19 02:18:11;;;;;;;14.77;9.10;;;7.10;99.90;;;;;;5076555;28;20544;-71
2022/12/19 02:20:57;;;;;;;13.93;9.93;;;7.20;99.90;;;;;;5076395;28;20230;-71
2022/12/19 02:24:10;;;;;;;14.17;9.03;;;7.30;99.90;;;;;;5076052;28;20165;-70
2022/12/19 02:26:54;;;;;;;12.70;9.77;;;7.30;99.90;;;;;;5014947;28;20249;-71
2022/12/19 02:30:02;;;;;;;12.57;9.20;;;7.30;99.90;;;;;;5076053;28;20188;-70
2022/12/19 02:33:12;;;;;;;11.37;8.80;;;7.30;99.90;;;;;;5049084;28;20181;-71
2022/12/19 02:36:03;;;;;;;10.27;8.57;;;7.30;99.90;;;;;;5072105;28;20407;-71
2022/12/19 02:38:51;;;;;;;12.10;9.03;;;7.30;99.90;;;;;;5037830;28;20660;-71
2022/12/19 02:41:42;;;;;;;10.97;8.73;;;7.30;99.90;;;;;;5076147;28;20286;-70
2022/12/19 02:44:18;;;;;;;12.13;9.00;;;7.30;99.90;;;;;;5076086;28;20173;-70
2022/12/19 02:46:45;;;;;;;11.80;8.80;;;7.30;99.90;;;;;;5075873;28;20631;-70
2022/12/19 02:49:11;;;;;;;12.07;9.00;;;7.20;99.90;;;;;;5076093;28;20632;-70
2022/12/19 02:51:37;;;;;;;13.50;9.53;;;7.30;99.90;;;;;;5075425;28;20179;-70
2022/12/19 02:54:03;;;;;;;12.33;9.97;;;7.30;99.90;;;;;;5075749;28;20165;-70
2022/12/19 02:56:34;;;;;;;12.67;9.97;;;7.30;99.90;;;;;;5075639;28;20220;-70
2022/12/19 02:59:11;;;;;;;13.93;9.67;;;7.30;99.90;;;;;;5075693;28;20175;-70
2022/12/19 03:01:40;;;;;;;13.80;9.73;;;7.30;99.90;;;;;;5075632;28;20200;-70
2022/12/19 03:04:18;;;;;;;12.70;9.83;;;7.30;99.90;;;;;;5075179;28;20530;-70
2022/12/19 03:07:12;;;;;;;13.87;9.77;;;7.30;99.90;;;;;;5075358;28;20180;-70
2022/12/19 03:09:44;;;;;;;13.90;9.47;;;7.30;99.90;;;;;;5057880;28;20204;-70
2022/12/19 03:12:22;;;;;;;14.07;9.90;;;7.30;99.90;;;;;;5075144;28;20208;-71
2022/12/19 03:14:50;;;;;;;12.50;9.50;;;7.30;99.90;;;;;;5075550;28;20271;-68
2022/12/19 03:17:17;;;;;;;10.83;9.03;;;7.30;99.90;;;;;;5075306;28;20210;-69
2022/12/19 03:19:44;;;;;;;15.60;10.13;;;7.30;99.90;;;;;;5075266;28;20172;-70
2022/12/19 03:22:10;;;;;;;12.30;9.53;;;7.30;99.90;;;;;;5075400;28;20160;-70
2022/12/19 03:24:36;;;;;;;12.70;9.83;;;7.30;99.90;;;;;;5075292;28;20251;-70
2022/12/19 03:27:17;;;;;;;12.23;9.30;;;7.40;99.90;;;;;;5075176;28;20180;-71
2022/12/19 03:29:54;;;;;;;13.40;9.40;;;7.40;99.90;;;;;;5075145;28;20658;-70
2022/12/19 03:32:23;;;;;;;13.80;9.67;;;7.40;99.90;;;;;;5074989;28;20172;-70
2022/12/19 03:35:02;;;;;;;12.03;9.20;;;7.40;99.90;;;;;;5074725;28;20264;-70
2022/12/19 03:37:32;;;;;;;13.70;9.83;;;7.40;99.90;;;;;;5074911;28;20288;-70
2022/12/19 03:40:03;;;;;;;12.20;9.27;;;7.40;99.90;;;;;;5074964;28;20168;-70
2022/12/19 03:45:25;;;;;;;10.97;8.57;;;7.50;99.90;;;;;;5074941;28;20176;-69
2022/12/19 03:47:58;;;;;;;11.63;8.77;;;7.50;99.90;;;;;;5074895;28;20241;-70
2022/12/19 03:50:30;;;;;;;11.30;8.97;;;7.60;99.90;;;;;;5074327;28;20194;-71
2022/12/19 03:53:14;;;;;;;11.70;9.30;;;7.60;99.90;;;;;;5074625;28;20172;-69
2022/12/19 03:55:48;;;;;;;9.70;8.70;;;7.70;99.90;;;;;;5074414;28;20192;-69
2022/12/19 03:58:23;;;;;;;11.07;8.67;;;7.70;99.90;;;;;;5074537;28;20531;-71
2022/12/19 04:00:50;;;;;;;9.97;8.47;;;7.70;99.90;;;;;;5074554;28;20646;-69
2022/12/19 04:03:17;;;;;;;12.73;8.30;;;7.80;99.90;;;;;;5074010;28;20179;-69
2022/12/19 04:05:46;;;;;;;10.97;7.93;;;7.80;99.90;;;;;;5074182;28;20188;-69
2022/12/19 04:08:12;;;;;;;10.63;8.00;;;7.90;99.90;;;;;;5074638;28;20177;-69
2022/12/19 04:10:45;;;;;;;10.27;7.97;;;7.90;99.90;;;;;;5074336;28;20176;-69
2022/12/19 04:13:23;;;;;;;10.47;7.93;;;7.90;99.90;;;;;;5074067;28;20216;-70
2022/12/19 04:16:15;;;;;;;9.03;8.07;;;8.00;99.90;;;;;;5073225;28;20263;-70
2022/12/19 04:18:46;;;;;;;9.93;7.10;;;8.00;99.90;;;;;;5073746;28;20165;-70
2022/12/19 04:21:20;;;;;;;9.47;8.23;;;8.10;99.90;;;;;;5073993;28;20161;-70
2022/12/19 04:23:52;;;;;;;9.90;7.47;;;8.10;99.90;;;;;;5073951;28;20510;-69
2022/12/19 04:26:20;;;;;;;8.33;7.43;;;8.10;99.90;;;;;;5073862;28;20196;-70
2022/12/19 04:28:53;;;;;;;8.93;7.17;;;8.20;99.90;;;;;;5073635;28;20172;-69
2022/12/19 04:31:19;;;;;;;7.80;6.73;;;8.20;99.90;;;;;;5073789;28;20188;-69
2022/12/19 04:33:45;;;;;;;10.13;7.37;;;8.30;99.90;;;;;;5073377;28;20177;-70
2022/12/19 04:36:11;;;;;;;8.40;7.40;;;8.30;99.90;;;;;;5073224;28;20200;-70
2022/12/19 04:38:37;;;;;;;9.33;6.57;;;8.30;99.90;;;;;;5073766;28;20160;-70
2022/12/19 04:41:02;;;;;;;9.10;7.40;;;8.30;99.90;;;;;;5073545;28;20620;-70
2022/12/19 04:43:28;;;;;;;10.23;7.07;;;8.30;99.90;;;;;;5073455;28;20545;-71
2022/12/19 04:45:54;;;;;;;7.80;7.00;;;8.30;99.90;;;;;;5073309;28;20528;-70
2022/12/19 04:48:19;;;;;;;8.00;6.93;;;8.40;99.90;;;;;;5073199;28;20176;-71
2022/12/19 04:50:45;;;;;;;8.13;7.07;;;8.30;99.90;;;;;;5073448;28;20172;-70
2022/12/19 04:53:11;;;;;;;8.17;7.27;;;8.40;99.90;;;;;;5073333;28;20650;-70
2022/12/19 04:55:36;;;;;;;8.27;6.60;;;8.40;99.90;;;;;;5073105;28;20176;-70
2022/12/19 04:58:05;;;;;;;10.20;7.20;;;8.40;99.90;;;;;;5073594;28;20169;-71
2022/12/19 05:00:32;;;;;;;9.27;7.17;;;8.40;99.90;;;;;;5073058;28;20768;-70
2022/12/19 05:02:58;;;;;;;9.00;7.17;;;8.50;99.90;;;;;;5072780;28;20683;-71
2022/12/19 05:05:23;;;;;;;9.30;7.03;;;8.50;99.90;;;;;;5073083;28;20207;-71
2022/12/19 05:07:50;;;;;;;7.53;6.60;;;8.50;99.90;;;;;;5073032;28;20169;-72
2022/12/19 05:10:15;;;;;;;7.80;6.97;;;8.50;99.90;;;;;;5072781;28;20251;-69
2022/12/19 05:12:41;;;;;;;12.23;7.40;;;8.50;99.90;;;;;;5072825;28;20674;-70
2022/12/19 05:15:07;;;;;;;8.27;6.80;;;8.50;99.90;;;;;;5072871;28;20541;-70
2022/12/19 05:17:33;;;;;;;8.63;6.83;;;8.50;99.90;;;;;;5072690;28;20241;-70
2022/12/19 05:19:58;;;;;;;7.90;6.47;;;8.50;99.90;;;;;;5072837;28;20253;-70
2022/12/19 05:22:24;;;;;;;8.00;7.00;;;8.60;99.90;;;;;;5072920;28;20173;-70
2022/12/19 05:24:50;;;;;;;7.50;6.73;;;8.60;99.90;;;;;;5072835;28;20729;-70
2022/12/19 05:27:15;;;;;;;7.90;6.73;;;8.70;99.90;;;;;;5072186;28;20184;-70
2022/12/19 05:29:41;;;;;;;8.00;6.80;;;8.60;99.90;;;;;;5073043;28;20192;-70
2022/12/19 05:32:06;;;;;;;8.60;6.80;;;8.60;99.90;;;;;;5072367;28;20218;-70
2022/12/19 05:34:32;;;;;;;9.07;6.40;;;8.70;99.90;;;;;;5072898;28;20164;-69
2022/12/19 05:36:58;;;;;;;7.03;6.33;;;8.70;99.90;;;;;;5072487;28;20637;-70
2022/12/19 05:39:23;;;;;;;7.27;6.03;;;8.70;99.90;;;;;;5072667;28;20205;-69
2022/12/19 05:41:49;;;;;;;6.23;5.70;;;8.60;99.90;;;;;;5072557;28;20624;-70
2022/12/19 05:44:15;;;;;;;7.87;6.70;;;8.70;99.90;;;;;;5072931;28;20243;-71
2022/12/19 05:46:40;;;;;;;7.93;7.00;;;8.70;99.90;;;;;;5071982;28;20640;-70
2022/12/19 05:49:06;;;;;;;9.20;6.67;;;8.70;99.90;;;;;;5072657;28;20168;-71
2022/12/19 05:51:31;;;;;;;7.00;6.20;;;8.70;99.90;;;;;;5072345;28;20172;-70
2022/12/19 05:53:59;;;;;;;6.97;6.27;;;8.70;99.90;;;;;;5071908;28;20169;-70
2022/12/19 05:56:25;;;;;;;6.67;6.00;;;8.70;99.90;;;;;;5071862;28;20200;-69
2022/12/19 05:58:50;;;;;;;7.30;6.00;;;8.70;99.90;;;;;;5072022;28;20188;-71
2022/12/19 06:01:20;;;;;;;6.90;6.20;;;8.80;99.90;;;;;;5072180;28;20180;-71
2022/12/19 06:03:46;;;;;;;7.60;6.50;;;8.80;99.90;;;;;;5072480;28;20164;-71
2022/12/19 06:06:14;;;;;;;7.30;6.47;;;8.90;99.90;;;;;;5072455;28;20247;-70
2022/12/19 06:08:40;;;;;;;7.97;6.00;;;8.90;99.90;;;;;;5072118;28;20252;-70
2022/12/19 06:11:07;;;;;;;6.73;6.07;;;8.90;99.90;;;;;;5072007;28;20263;-70
2022/12/19 06:13:34;;;;;;;7.57;5.63;;;8.90;99.90;;;;;;5071727;28;20220;-71
2022/12/19 06:16:02;;;;;;;6.63;6.00;;;8.90;99.90;;;;;;5071871;28;20651;-71
2022/12/19 06:18:28;;;;;;;6.67;6.00;;;9.00;99.90;;;;;;5071513;28;20177;-70
2022/12/19 06:21:07;;;;;;;7.20;6.10;;;8.90;99.90;;;;;;5071613;28;20653;-71
2022/12/19 06:23:34;;;;;;;8.50;5.90;;;9.00;99.90;;;;;;5072143;28;20230;-70
2022/12/19 06:26:02;;;;;;;6.60;6.00;;;9.00;99.90;;;;;;5071351;28;20164;-70
2022/12/19 06:28:29;;;;;;;6.80;6.07;;;9.00;99.90;;;;;;5071323;28;20207;-70
2022/12/19 06:30:58;;;;;;;6.00;5.50;;;9.00;99.90;;;;;;5071564;28;20195;-71
2022/12/19 06:33:25;;;;;;;7.77;5.80;;;9.00;99.90;;;;;;5071641;28;20172;-69
2022/12/19 06:36:13;;;;;;;6.40;5.80;;;9.00;99.90;;;;;;5070933;28;20227;-70
2022/12/19 06:38:38;;;;;;;6.13;5.53;;;9.00;99.90;;;;;;5071825;28;20260;-70
2022/12/19 06:43:49;;;;;;;9.47;6.20;;;9.00;99.90;;;;;;5074886;28;20290;-71
2022/12/19 06:46:14;;;;;;;6.20;5.63;;;9.00;99.90;;;;;;5074585;28;20200;-70
2022/12/19 06:48:40;;;;;;;7.13;5.50;;;9.00;99.90;;;;;;5074124;28;20223;-71
2022/12/19 06:51:06;;;;;;;7.10;5.90;;;9.00;99.90;;;;;;5075000;28;20169;-70
2022/12/19 06:53:32;;;;;;;5.53;5.03;;;9.00;99.90;;;;;;5074555;28;20195;-70
2022/12/19 06:55:58;;;;;;;6.07;5.07;;;9.10;99.90;;;;;;5073193;28;20307;-70
2022/12/19 06:58:25;;;;;;;8.13;5.60;;;9.20;99.90;;;;;;5074473;28;20172;-71
2022/12/19 07:00:51;;;;;;;5.77;4.90;;;9.20;99.90;;;;;;5074317;28;20172;-70
2022/12/19 07:03:23;;;;;;;7.13;5.37;;;9.20;99.90;;;;;;5074173;28;20173;-72
2022/12/19 07:05:48;;;;;;;6.90;5.30;;;9.20;99.90;;;;;;5074232;28;20169;-71
2022/12/19 07:08:14;;;;;;;5.57;5.00;;;9.30;99.90;;;;;;5073828;28;20646;-71
2022/12/19 07:10:40;;;;;;;6.83;5.60;;;9.30;99.90;;;;;;5074149;28;20214;-72
2022/12/19 07:13:05;;;;;;;8.07;5.60;;;9.30;99.90;;;;;;5073570;28;20264;-71
2022/12/19 07:15:33;;;;;;;12.10;5.37;;;9.40;99.90;;;;;;5074421;28;20183;-71
2022/12/19 07:18:00;;;;;;;7.20;5.37;;;9.50;99.90;;;;;;5073850;28;20246;-72
2022/12/19 07:20:27;;;;;;;6.23;5.30;;;9.50;99.90;;;;;;5073863;28;20283;-72
2022/12/19 07:22:53;;;;;;;5.37;4.87;;;9.60;99.90;;;;;;5073694;28;20289;-73
2022/12/19 07:25:19;;;;;;;7.77;5.33;;;9.60;99.90;;;;;;5074193;28;20511;-73
2022/12/19 07:27:46;;;;;;;6.37;5.37;;;9.60;99.90;;;;;;5073851;28;20168;-73
2022/12/19 07:30:12;;;;;;;6.90;5.47;;;9.50;99.90;;;;;;5073023;28;20291;-72
2022/12/19 07:32:38;;;;;;;8.13;5.33;;;9.40;99.90;;;;;;5074255;28;20195;-72
2022/12/19 07:35:05;;;;;;;7.43;5.63;;;9.30;99.90;;;;;;5073542;28;20255;-73
2022/12/19 07:37:31;;;;;;;7.13;5.23;;;9.30;99.90;;;;;;5073170;28;20307;-72
2022/12/19 07:39:56;;;;;;;7.77;5.43;;;9.30;99.90;;;;;;5073176;28;20196;-72
2022/12/19 07:42:22;;;;;;;6.00;5.40;;;9.40;99.90;;;;;;5073065;28;20191;-72
2022/12/19 07:44:47;;;;;;;12.40;6.50;;;9.40;99.90;;;;;;5073396;28;20183;-71
2022/12/19 07:47:13;;;;;;;8.80;5.73;;;9.40;99.90;;;;;;5072067;28;20229;-72
2022/12/19 07:49:39;;;;;;;10.20;5.80;;;9.40;99.90;;;;;;5073515;28;20188;-71
2022/12/19 07:52:04;;;;;;;8.80;5.67;;;9.40;99.90;;;;;;5072748;28;20179;-71
2022/12/19 07:54:30;;;;;;;5.93;4.93;;;9.40;99.90;;;;;;5072759;28;20175;-72
2022/12/19 07:56:55;;;;;;;5.80;4.97;;;9.50;99.90;;;;;;5073047;28;20220;-70
2022/12/19 07:59:21;;;;;;;6.60;4.97;;;9.50;99.90;;;;;;5073467;28;20241;-72
2022/12/19 08:01:47;;;;;;;6.27;4.97;;;9.50;99.90;;;;;;5073225;28;20176;-70
2022/12/19 08:04:12;;;;;;;7.33;5.63;;;9.60;99.90;;;;;;5073244;28;20199;-71
2022/12/19 08:06:38;;;;;;;5.33;4.73;;;9.60;99.90;;;;;;5072572;28;20252;-72
2022/12/19 08:09:04;;;;;;;6.47;4.90;;;9.70;99.90;;;;;;5073358;28;20218;-72
2022/12/19 08:11:29;;;;;;;5.47;4.87;;;9.70;99.90;;;;;;5072572;28;20255;-72
2022/12/19 08:13:56;;;;;;;4.90;4.50;;;9.70;99.90;;;;;;5072364;28;20244;-72
2022/12/19 08:16:24;;;;;;;5.20;4.77;;;9.70;99.90;;;;;;5072537;28;20216;-72
2022/12/19 08:18:49;;;;;;;7.10;4.80;;;9.70;99.90;;;;;;5073889;28;20175;-69
2022/12/19 08:21:15;;;;;;;5.03;4.60;;;9.80;99.90;;;;;;5073344;28;20252;-71
2022/12/19 08:23:40;;;;;;;5.40;4.90;;;9.80;99.90;;;;;;5072719;28;20180;-72
2022/12/19 08:26:11;;;;;;;6.57;4.90;;;9.80;99.90;;;;;;5072668;28;20188;-72
2022/12/19 08:28:37;;;;;;;7.40;4.70;;;9.80;99.90;;;;;;5073178;28;20192;-72
2022/12/19 08:31:15;;;;;;;7.37;5.27;;;9.80;99.90;;;;;;5072893;28;20260;-71
2022/12/19 08:33:41;;;;;;;5.80;4.30;;;9.80;99.90;;;;;;5072841;28;20180;-71
2022/12/19 08:36:09;;;;;;;5.50;4.57;;;9.80;99.90;;;;;;5073170;28;20204;-72
2022/12/19 08:38:35;;;;;;;5.03;4.50;;;9.80;99.90;;;;;;5073071;28;20647;-71
2022/12/19 08:41:01;;;;;;;5.30;4.80;;;9.80;99.90;;;;;;5082109;28;20253;-71
2022/12/19 08:43:27;;;;;;;5.23;4.20;;;9.80;99.90;;;;;;5081780;28;20912;-71
2022/12/19 08:45:53;;;;;;;7.47;4.80;;;9.90;99.90;;;;;;5089994;28;20276;-72
2022/12/19 08:48:19;;;;;;;6.53;4.80;;;9.90;99.90;;;;;;5078699;28;20601;-72
2022/12/19 08:50:52;;;;;;;5.00;4.60;;;9.90;99.90;;;;;;5092391;28;20186;-72
2022/12/19 08:53:18;;;;;;;5.57;4.50;;;9.90;99.90;;;;;;5092547;28;20192;-72
2022/12/19 08:55:44;;;;;;;5.03;4.63;;;10.00;99.90;;;;;;5092768;28;20167;-73
2022/12/19 08:58:09;;;;;;;4.97;4.07;;;10.00;99.90;;;;;;5092671;28;20171;-71
2022/12/19 09:00:35;;;;;;;5.03;4.50;;;10.00;99.90;;;;;;5092256;28;20711;-72
2022/12/19 09:03:01;;;;;;;6.47;4.60;;;10.00;99.90;;;;;;5086850;28;20192;-71
2022/12/19 09:05:27;;;;;;;6.17;4.40;;;10.10;99.90;;;;;;5071858;28;20238;-71
2022/12/19 09:07:53;;;;;;;5.67;4.70;;;10.10;99.90;;;;;;5071753;28;20183;-72
2022/12/19 09:10:19;;;;;;;7.53;4.80;;;10.10;99.90;;;;;;5071622;28;20357;-73
2022/12/19 09:12:44;;;;;;;6.07;4.20;;;10.10;99.90;;;;;;5072214;28;20238;-72
2022/12/19 09:15:11;;;;;;;5.17;3.70;;;10.10;99.90;;;;;;5071483;28;20181;-72
2022/12/19 09:17:37;;;;;;;4.70;4.30;;;10.10;99.90;;;;;;5071929;28;20200;-73
2022/12/19 09:20:03;;;;;;;4.80;4.33;;;10.10;99.90;;;;;;5072416;28;20259;-73
2022/12/19 09:22:29;;;;;;;3.90;3.60;;;10.10;99.90;;;;;;5071631;28;20187;-74
2022/12/19 09:24:54;;;;;;;5.00;4.17;;;10.10;99.90;;;;;;5072386;28;20169;-72
2022/12/19 09:27:20;;;;;;;5.97;4.37;;;10.10;99.90;;;;;;5072128;28;20639;-71
2022/12/19 09:29:45;;;;;;;4.93;4.40;;;10.10;99.90;;;;;;5072131;28;20197;-72
2022/12/19 09:32:11;;;;;;;4.53;4.10;;;10.10;99.90;;;;;;5071671;28;20180;-73
2022/12/19 09:34:37;;;;;;;5.13;4.63;;;10.10;99.90;;;;;;5071961;28;20619;-72
2022/12/19 09:37:03;;;;;;;5.30;4.67;;;10.00;99.90;;;;;;5072595;28;20231;-72
2022/12/19 09:39:29;;;;;;;6.07;5.07;;;10.00;99.90;;;;;;5084754;28;20164;-71
2022/12/19 09:42:09;;;;;;;7.43;5.00;;;10.00;99.90;;;;;;5092274;28;20217;-72
2022/12/19 09:44:34;;;;;;;5.40;4.67;;;10.00;99.90;;;;;;5092354;28;20263;-71
2022/12/19 09:47:03;;;;;;;5.47;4.90;;;10.00;99.90;;;;;;5091896;28;20425;-73
2022/12/19 09:49:36;;;;;;;5.47;4.60;;;10.00;99.90;;;;;;5092276;28;20247;-73
2022/12/19 09:52:12;;;;;;;6.10;4.53;;;10.00;99.90;;;;;;5091607;28;20164;-72
2022/12/19 09:54:42;;;;;;;8.30;5.10;;;10.00;99.90;;;;;;5081749;28;20180;-73
2022/12/19 09:57:22;;;;;;;5.40;4.90;;;10.10;99.90;;;;;;5071537;28;20258;-73
2022/12/19 10:00:02;;;;;;;6.03;4.57;;;10.00;99.90;;;;;;5071739;28;20171;-73
2022/12/19 10:02:31;;;;;;;5.67;4.43;;;10.00;99.90;;;;;;5070465;28;20291;-74
2022/12/19 10:05:32;;;;;;;12.77;4.80;;;10.10;99.90;;;;;;5100617;28;20237;-73
2022/12/19 10:07:58;;;;;;;20.57;15.37;;;10.10;99.90;;;;;;5091273;28;20246;-72
2022/12/19 10:10:46;;;;;;;7.37;5.90;;;10.10;99.90;;;;;;5091220;28;20206;-72
2022/12/19 10:13:36;;;;;;;12.07;8.53;;;10.20;99.90;;;;;;5083634;28;20220;-72
2022/12/19 10:16:21;;;;;;;30.93;19.37;;;10.20;99.90;;;;;;5095563;28;20196;-72
2022/12/19 10:18:57;;;;;;;59.07;35.30;;;10.30;99.90;;;;;;5095356;28;20179;-73
2022/12/19 10:21:34;;;;;;;6.73;6.03;;;10.30;99.90;;;;;;5095230;28;20171;-72
2022/12/19 10:24:19;;;;;;;12.43;9.27;;;10.40;99.90;;;;;;5095282;28;20164;-73
2022/12/19 10:26:53;;;;;;;6.10;5.30;;;10.50;99.90;;;;;;5095363;28;20306;-72
2022/12/19 10:29:33;;;;;;;20.63;18.83;;;10.50;99.90;;;;;;5080999;28;20196;-73
2022/12/19 10:32:33;;;;;;;62.83;56.77;;;10.60;99.90;;;;;;5095219;28;20650;-73
2022/12/19 10:35:00;;;;;;;23.27;21.17;;;10.70;99.90;;;;;;5094606;28;20214;-72
2022/12/19 10:37:29;;;;;;;65.90;59.83;;;10.70;99.90;;;;;;5094738;28;20204;-72
2022/12/19 10:40:14;;;;;;;4.57;3.70;;;10.80;99.90;;;;;;5094862;28;20700;-72
2022/12/19 10:43:16;;;;;;;30.53;27.43;;;10.90;99.90;;;;;;5095269;28;20179;-71
2022/12/19 10:45:48;;;;;;;9.10;6.87;;;11.00;99.90;;;;;;5087598;28;20226;-72
2022/12/19 10:48:21;;;;;;;27.03;22.70;;;11.00;99.90;;;;;;5077882;28;20200;-72
2022/12/19 10:50:48;;;;;;;4.77;4.47;;;11.10;99.90;;;;;;5089628;28;20176;-72
2022/12/19 10:53:14;;;;;;;6.73;4.90;;;11.20;99.90;;;;;;5090062;28;20220;-72
2022/12/19 10:55:44;;;;;;;19.47;15.40;;;11.20;99.90;;;;;;5093397;28;20187;-72
2022/12/19 10:58:20;;;;;;;5.70;5.20;;;11.30;99.90;;;;;;5094921;28;20572;-72
2022/12/19 11:01:18;;;;;;;6.13;5.57;;;11.30;99.90;;;;;;5095720;28;20190;-72
2022/12/19 11:03:51;;;;;;;75.80;58.23;;;11.40;99.90;;;;;;5094412;28;20541;-73
2022/12/19 11:06:36;;;;;;;5.83;5.33;;;11.40;99.90;;;;;;5094607;28;20163;-72
2022/12/19 11:09:28;;;;;;;12.40;9.33;;;11.60;99.90;;;;;;5095384;28;20186;-72
2022/12/19 11:11:56;;;;;;;11.63;10.40;;;11.70;99.90;;;;;;5094261;28;20243;-72
2022/12/19 11:14:25;;;;;;;5.03;3.57;;;11.80;99.90;;;;;;5094861;28;20219;-71
2022/12/19 11:16:51;;;;;;;6.90;6.23;;;11.90;99.90;;;;;;5094859;28;20226;-72
2022/12/19 11:19:37;;;;;;;8.03;7.33;;;11.90;99.90;;;;;;5094340;28;20250;-71
2022/12/19 11:22:28;;;;;;;4.83;4.50;;;12.00;99.90;;;;;;5093316;28;20187;-72
2022/12/19 11:24:55;;;;;;;6.33;4.57;;;12.00;99.90;;;;;;5094464;28;20176;-72
2022/12/19 11:27:36;;;;;;;9.73;8.33;;;12.10;99.90;;;;;;5094641;28;20229;-72
2022/12/19 11:30:15;;;;;;;6.23;5.60;;;12.20;99.90;;;;;;5095354;28;20249;-71
2022/12/19 11:32:43;;;;;;;10.17;9.27;;;12.20;99.90;;;;;;5094859;28;20259;-73
2022/12/19 11:35:17;;;;;;;5.43;3.53;;;12.30;99.90;;;;;;5094726;28;20182;-72
2022/12/19 11:37:54;;;;;;;29.20;23.70;;;12.40;99.90;;;;;;5094036;28;20282;-72
2022/12/19 11:40:32;;;;;;;37.77;33.33;;;12.50;99.90;;;;;;5094547;28;20257;-72
2022/12/19 11:43:19;;;;;;;5.70;5.07;;;12.50;99.90;;;;;;5093826;28;20304;-72
2022/12/19 11:46:06;;;;;;;13.67;12.53;;;12.50;99.90;;;;;;5094545;28;20618;-71
2022/12/19 11:48:37;;;;;;;11.50;10.60;;;12.40;99.90;;;;;;5093909;28;20173;-72
2022/12/19 11:51:33;;;;;;;4.57;4.23;;;12.40;99.90;;;;;;5094476;28;20311;-72
2022/12/19 11:53:59;;;;;;;16.23;14.53;;;12.40;99.90;;;;;;5094304;28;20171;-72
2022/12/19 11:56:26;;;;;;;3.73;3.03;;;12.40;99.90;;;;;;5093558;28;20207;-72
2022/12/19 11:59:18;;;;;;;6.43;4.47;;;12.30;99.90;;;;;;5094431;28;20161;-71
2022/12/19 12:01:50;;;;;;;4.07;3.67;;;12.30;99.90;;;;;;5094208;28;20257;-72
2022/12/19 12:04:53;;;;;;;7.33;6.60;;;12.20;99.90;;;;;;5093606;28;20168;-72
2022/12/19 12:07:19;;;;;;;13.73;12.23;;;12.20;99.90;;;;;;5093518;28;20229;-71
2022/12/19 12:09:56;;;;;;;5.77;5.07;;;12.20;99.90;;;;;;5093360;28;20164;-72
2022/12/19 12:12:50;;;;;;;3.87;3.57;;;12.20;99.90;;;;;;5093807;28;20230;-71
2022/12/19 12:15:47;;;;;;;5.07;4.60;;;12.10;99.90;;;;;;5093552;28;20260;-72
2022/12/19 12:18:44;;;;;;;5.13;4.73;;;12.10;99.90;;;;;;5093432;28;20193;-71
2022/12/19 12:21:27;;;;;;;4.33;3.47;;;12.10;99.90;;;;;;5093418;28;20168;-70
2022/12/19 12:24:11;;;;;;;4.40;4.00;;;12.10;99.90;;;;;;5093492;28;20207;-72
2022/12/19 12:27:09;;;;;;;6.77;4.60;;;12.10;99.90;;;;;;5093301;28;20199;-70
2022/12/19 12:29:55;;;;;;;3.77;3.47;;;12.10;99.90;;;;;;5093579;28;20244;-71
2022/12/19 12:33:04;;;;;;;6.00;3.60;;;12.10;99.90;;;;;;5078458;28;20187;-73
2022/12/19 12:35:38;;;;;;;5.00;3.73;;;12.20;99.90;;;;;;5011318;28;20190;-71
2022/12/19 12:38:18;;;;;;;3.33;3.03;;;12.20;99.90;;;;;;5011121;28;20277;-73
2022/12/19 12:41:03;;;;;;;3.50;3.20;;;12.30;99.90;;;;;;5011444;28;20257;-73
2022/12/19 12:44:10;;;;;;;5.93;3.20;;;12.30;99.90;;;;;;5009907;28;20309;-72
2022/12/19 12:46:47;;;;;;;4.70;3.33;;;12.20;99.90;;;;;;5010670;28;20167;-70
2022/12/19 12:49:35;;;;;;;3.77;3.20;;;12.30;99.90;;;;;;5011712;28;20231;-71
2022/12/19 12:52:03;;;;;;;5.23;2.90;;;12.30;99.90;;;;;;5010536;28;20187;-71
2022/12/19 12:54:35;;;;;;;3.90;3.40;;;12.30;99.90;;;;;;5011669;28;20178;-72
2022/12/19 12:57:01;;;;;;;3.57;3.23;;;12.30;99.90;;;;;;5010072;28;20406;-72
2022/12/19 12:59:29;;;;;;;5.07;3.60;;;12.30;99.90;;;;;;5010381;28;20642;-73
2022/12/19 13:02:19;;;;;;;3.53;3.23;;;12.30;99.90;;;;;;5005288;28;20712;-70
2022/12/19 13:04:58;;;;;;;11.60;10.40;;;12.30;99.90;;;;;;5009072;28;20221;-71
2022/12/19 13:07:29;;;;;;;6.40;3.53;;;12.30;99.90;;;;;;5000630;28;20171;-72
2022/12/19 13:10:12;;;;;;;12.13;7.57;;;12.20;99.90;;;;;;5011900;28;20178;-72
2022/12/19 13:12:58;;;;;;;5.67;4.40;;;12.20;99.90;;;;;;5091638;28;20218;-71
2022/12/19 13:15:27;;;;;;;5.83;3.73;;;12.10;99.90;;;;;;5082323;28;20175;-71
2022/12/19 13:17:52;;;;;;;3.17;2.97;;;12.10;99.90;;;;;;5086076;28;20682;-71